createdAt,value
2019-03-05T00:04:13.259Z,99818.87
2019-03-05T00:09:15.728Z,99819.63
2019-03-05T00:14:18.930Z,99813.66
2019-03-05T00:19:20.651Z,99823.41
2019-03-05T00:24:57.062Z,99816.39
2019-03-05T00:30:17.861Z,99825.46
2019-03-05T00:35:29.553Z,99825.63
2019-03-05T00:40:34.971Z,99831.88
2019-03-05T00:45:40.444Z,99833.20
2019-03-05T00:51:01.229Z,99831.89
2019-03-05T00:56:12.466Z,99845.38
2019-03-05T01:01:14.924Z,99850.58
2019-03-05T01:06:16.865Z,99868.53
2019-03-05T01:11:19.272Z,99869.03
2019-03-05T01:16:21.751Z,99859.94
2019-03-05T01:21:24.183Z,99861.75
2019-03-05T01:26:26.640Z,99871.17
2019-03-05T01:31:47.392Z,99861.11
2019-03-05T01:36:49.873Z,99868.64
2019-03-05T01:41:52.317Z,99869.20
2019-03-05T01:46:54.771Z,99871.23
2019-03-05T01:51:57.237Z,99871.26
2019-03-05T01:56:59.693Z,99860.50
2019-03-05T02:02:02.148Z,99848.05
2019-03-05T02:07:04.603Z,99847.11
2019-03-05T02:12:07.059Z,99843.59
2019-03-05T02:17:09.543Z,99841.00
2019-03-05T02:22:21.285Z,99835.55
2019-03-05T02:27:48.605Z,99838.78
2019-03-05T02:32:56.991Z,99837.42
2019-03-05T02:38:24.220Z,99829.14
2019-03-05T02:43:26.675Z,99827.04
2019-03-05T02:48:47.640Z,99828.80
2019-03-05T02:53:59.026Z,99827.80
2019-03-05T02:59:00.949Z,99846.26
2019-03-05T03:04:03.400Z,99850.48
2019-03-05T03:09:20.869Z,99855.39
2019-03-05T03:14:23.331Z,99851.92
2019-03-05T03:19:25.787Z,99854.82
2019-03-05T03:24:28.225Z,99861.88
2019-03-05T03:29:30.697Z,99879.95
2019-03-05T03:34:33.209Z,99869.44
2019-03-05T03:39:35.586Z,99869.55
2019-03-05T03:44:38.060Z,99877.70
2019-03-05T03:49:40.510Z,99871.95
2019-03-05T03:54:42.966Z,99890.36
2019-03-05T03:59:45.431Z,99888.76
2019-03-05T04:04:47.876Z,99872.89
2019-03-05T04:09:50.327Z,99875.95
2019-03-05T04:14:52.790Z,99881.40
2019-03-05T04:19:55.256Z,99872.89
2019-03-05T04:24:57.698Z,99878.66
2019-03-05T04:30:00.396Z,99873.61
2019-03-05T04:35:02.627Z,99888.47
2019-03-05T04:40:05.096Z,99874.61
2019-03-05T04:45:26.093Z,99873.55
2019-03-05T04:50:31.394Z,99880.11
2019-03-05T04:55:33.843Z,99881.08
2019-03-05T05:00:36.292Z,99877.15
2019-03-05T05:05:38.760Z,99874.78
2019-03-05T05:10:41.212Z,99880.51
2019-03-05T05:15:43.661Z,99882.20
2019-03-05T05:20:46.116Z,99877.08
2019-03-05T05:25:48.589Z,99886.52
2019-03-05T05:30:51.031Z,99882.06
2019-03-05T05:35:53.494Z,99882.33
2019-03-05T05:40:55.940Z,99887.39
2019-03-05T05:45:58.402Z,99881.77
2019-03-05T05:51:00.864Z,99890.72
2019-03-05T05:56:03.322Z,99892.52
2019-03-05T06:01:05.771Z,99886.52
2019-03-05T06:06:08.217Z,99891.58
2019-03-05T06:11:10.676Z,99898.77
2019-03-05T06:16:13.127Z,99904.35
2019-03-05T06:21:15.582Z,99895.03
2019-03-05T06:26:18.044Z,99893.32
2019-03-05T06:31:20.501Z,99898.36
2019-03-05T06:36:22.970Z,99909.48
2019-03-05T06:41:25.446Z,99910.84
2019-03-05T06:46:27.915Z,99924.84
2019-03-05T06:51:30.389Z,99924.25
2019-03-05T06:56:32.838Z,99927.98
2019-03-05T07:01:35.288Z,99925.75
2019-03-05T07:06:46.741Z,99917.67
2019-03-05T07:11:52.242Z,99925.16
2019-03-05T07:16:57.658Z,99928.99
2019-03-05T07:22:02.780Z,99929.67
2019-03-05T07:27:05.320Z,99932.20
2019-03-05T07:32:07.732Z,99933.01
2019-03-05T07:37:10.215Z,99940.84
2019-03-05T07:42:12.674Z,99939.42
2019-03-05T07:47:15.165Z,99941.95
2019-03-05T07:52:17.621Z,99932.91
2019-03-05T07:57:20.081Z,99936.89
2019-03-05T08:02:22.562Z,99944.38
2019-03-05T08:07:25.127Z,99940.52
2019-03-05T08:12:27.493Z,99946.52
2019-03-05T08:17:29.967Z,99946.30
2019-03-05T08:22:32.436Z,99945.09
2019-03-05T08:27:34.900Z,99949.38
2019-03-05T08:32:37.358Z,99968.64
2019-03-05T08:37:39.836Z,99956.06
2019-03-05T08:42:42.320Z,99971.09
2019-03-05T08:47:44.773Z,99957.25
2019-03-05T08:52:47.302Z,99965.01
2019-03-05T08:57:49.686Z,99977.63
2019-03-05T09:02:52.175Z,99966.36
2019-03-05T09:07:54.641Z,99968.77
2019-03-05T09:12:57.100Z,99959.73
2019-03-05T09:17:59.578Z,99958.17
2019-03-05T09:23:02.041Z,99954.44
2019-03-05T09:28:04.498Z,99955.75
2019-03-05T09:33:07.135Z,99948.87
2019-03-05T09:38:09.441Z,99950.14
2019-03-05T09:43:11.914Z,99953.80
2019-03-05T09:48:14.388Z,99975.38
2019-03-05T09:53:16.834Z,99989.55
2019-03-05T09:58:19.298Z,99992.81
2019-03-05T10:03:21.780Z,100000.11
2019-03-05T10:08:32.020Z,99989.97
2019-03-05T10:13:26.739Z,99991.30
2019-03-05T10:18:29.571Z,99987.14
2019-03-05T10:23:31.963Z,99976.03
2019-03-05T10:28:34.432Z,99965.38
2019-03-05T10:33:36.921Z,99969.94
2019-03-05T10:38:39.438Z,99953.82
2019-03-05T10:43:41.846Z,99938.55
2019-03-05T10:48:44.310Z,99954.82
2019-03-05T10:53:46.779Z,99946.81
2019-03-05T10:58:49.259Z,99947.58
2019-03-05T11:03:51.731Z,99939.11
2019-03-05T11:08:54.204Z,99934.83
2019-03-05T11:13:56.674Z,99935.61
2019-03-05T11:18:59.127Z,99936.00
2019-03-05T11:24:01.596Z,99936.77
2019-03-05T11:29:04.063Z,99945.70
2019-03-05T11:34:06.533Z,99953.08
2019-03-05T11:39:09.000Z,99946.86
2019-03-05T11:44:11.457Z,99943.29
2019-03-05T11:49:13.949Z,99939.06
2019-03-05T11:54:16.433Z,99939.77
2019-03-05T11:59:18.907Z,99940.84
2019-03-05T12:04:21.372Z,99936.19
2019-03-05T12:09:23.866Z,99939.33
2019-03-05T12:14:26.324Z,99954.23
2019-03-05T12:19:28.811Z,99939.34
2019-03-05T12:24:31.282Z,99941.50
2019-03-05T12:29:33.786Z,99942.70
2019-03-05T12:34:36.270Z,99947.52
2019-03-05T12:39:38.733Z,99953.31
2019-03-05T12:44:41.202Z,99950.14
2019-03-05T12:49:43.705Z,99957.05
2019-03-05T12:54:46.196Z,99953.17
2019-03-05T12:59:48.685Z,99966.48
2019-03-05T13:04:51.148Z,99959.91
2019-03-05T13:09:56.878Z,99966.72
2019-03-05T13:14:56.062Z,99973.05
2019-03-05T13:19:58.520Z,99986.55
2019-03-05T13:25:00.989Z,99985.51
2019-03-05T13:30:03.467Z,100000.30
2019-03-05T13:35:05.949Z,100014.59
2019-03-05T13:40:08.428Z,100009.19
2019-03-05T13:45:10.891Z,99997.34
2019-03-05T13:50:24.129Z,100020.84
2019-03-05T13:55:26.907Z,100023.09
2019-03-05T14:00:27.075Z,100032.36
2019-03-05T14:05:47.879Z,100026.79
2019-03-05T14:10:50.366Z,100033.05
2019-03-05T14:15:52.868Z,100027.83
2019-03-05T14:20:55.311Z,100036.77
2019-03-05T14:25:57.827Z,100039.63
2019-03-05T14:31:00.261Z,100047.58
2019-03-05T14:36:02.732Z,100063.84
2019-03-05T14:41:05.242Z,100054.89
2019-03-05T14:46:07.691Z,100066.55
2019-03-05T14:51:10.167Z,100079.68
2019-03-05T14:56:12.781Z,100084.36
2019-03-05T15:01:15.228Z,100085.19
2019-03-05T15:06:17.715Z,100085.81
2019-03-05T15:11:20.195Z,100107.89
2019-03-05T15:16:22.680Z,100120.11
2019-03-05T15:21:25.105Z,100112.36
2019-03-05T15:26:27.582Z,100112.13
2019-03-05T15:31:30.056Z,100117.24
2019-03-05T15:36:32.519Z,100113.82
2019-03-05T15:41:35.032Z,100121.74
2019-03-05T15:46:37.432Z,100108.14
2019-03-05T15:51:39.988Z,100113.07
2019-03-05T15:56:42.409Z,100118.34
2019-03-05T16:01:44.880Z,100116.91
2019-03-05T16:06:49.657Z,100121.38
2019-03-05T16:11:49.847Z,100129.19
2019-03-05T16:16:52.857Z,100131.55
2019-03-05T16:21:54.790Z,100134.84
2019-03-05T16:26:57.893Z,100137.52
2019-03-05T16:32:14.958Z,100135.80
2019-03-05T16:37:17.434Z,100136.13
2019-03-05T16:42:25.902Z,100147.25
2019-03-05T16:47:37.465Z,100154.08
2019-03-05T16:52:39.929Z,100167.13
2019-03-05T16:57:51.275Z,100174.26
2019-03-05T17:02:56.307Z,100167.16
2019-03-05T17:07:58.917Z,100172.92
2019-03-05T17:13:01.413Z,100183.52
2019-03-05T17:18:03.883Z,100207.03
2019-03-05T17:23:06.361Z,100203.86
2019-03-05T17:28:08.812Z,100207.59
2019-03-05T17:33:11.317Z,100207.84
2019-03-05T17:38:13.778Z,100222.70
2019-03-05T17:43:16.464Z,100231.08
2019-03-05T17:48:18.928Z,100242.12
2019-03-05T17:53:21.388Z,100246.75
2019-03-05T17:58:23.852Z,100249.25
2019-03-05T18:03:26.321Z,100263.39
2019-03-05T18:08:28.804Z,100272.55
2019-03-05T18:13:31.271Z,100261.30
2019-03-05T18:18:33.726Z,100275.19
2019-03-05T18:23:36.185Z,100280.31
2019-03-05T18:28:38.670Z,100285.72
2019-03-05T18:33:41.133Z,100279.86
2019-03-05T18:38:43.622Z,100287.55
2019-03-05T18:43:46.090Z,100290.30
2019-03-05T18:48:48.562Z,100295.55
2019-03-05T18:53:51.030Z,100297.88
2019-03-05T18:58:53.514Z,100296.31
2019-03-05T19:03:55.996Z,100308.91
2019-03-05T19:08:58.460Z,100309.96
2019-03-05T19:14:00.936Z,100310.18
2019-03-05T19:19:03.406Z,100319.20
2019-03-05T19:24:05.880Z,100323.66
2019-03-05T19:29:08.358Z,100333.98
2019-03-05T19:34:10.834Z,100335.14
2019-03-05T19:39:13.297Z,100340.14
2019-03-05T19:44:15.780Z,100340.00
2019-03-05T19:49:18.250Z,100334.95
2019-03-05T19:54:20.725Z,100328.47
2019-03-05T19:59:23.191Z,100347.73
2019-03-05T20:04:25.677Z,100347.17
2019-03-05T20:09:28.146Z,100341.15
2019-03-05T20:14:30.628Z,100339.70
2019-03-05T20:19:33.120Z,100346.16
2019-03-05T20:24:35.564Z,100343.11
2019-03-05T20:29:38.016Z,100337.41
2019-03-05T20:34:40.503Z,100346.61
2019-03-05T20:39:43.018Z,100348.63
2019-03-05T20:44:45.467Z,100354.09
2019-03-05T20:49:47.933Z,100353.58
2019-03-05T20:54:50.394Z,100346.23
2019-03-05T20:59:52.882Z,100355.81
2019-03-05T21:04:55.410Z,100353.22
2019-03-05T21:09:57.869Z,100346.60
2019-03-05T21:15:00.480Z,100353.89
2019-03-05T21:20:02.973Z,100352.06
2019-03-05T21:25:05.459Z,100358.64
2019-03-05T21:30:22.830Z,100353.69
2019-03-05T21:35:25.294Z,100359.80
2019-03-05T21:40:27.796Z,100353.62
2019-03-05T21:45:45.306Z,100353.14
2019-03-05T21:50:47.757Z,100348.31
2019-03-05T21:55:50.222Z,100349.20
2019-03-05T22:00:52.702Z,100353.00
2019-03-05T22:05:55.167Z,100346.91
2019-03-05T22:10:57.674Z,100342.42
2019-03-05T22:16:00.139Z,100349.63
2019-03-05T22:21:02.602Z,100349.63
2019-03-05T22:26:05.085Z,100345.15
2019-03-05T22:31:07.575Z,100340.23
2019-03-05T22:36:10.034Z,100344.39
2019-03-05T22:41:12.497Z,100335.54
2019-03-05T22:46:14.960Z,100329.39
2019-03-05T22:51:17.421Z,100319.22
2019-03-05T22:56:19.905Z,100324.94
2019-03-05T23:01:22.401Z,100319.31
2019-03-05T23:06:24.848Z,100318.80
2019-03-05T23:11:27.331Z,100320.56
2019-03-05T23:16:29.784Z,100321.80
2019-03-05T23:21:32.279Z,100315.22
2019-03-05T23:26:34.741Z,100307.14
2019-03-05T23:31:37.212Z,100301.92
2019-03-05T23:36:39.682Z,100304.23
2019-03-05T23:41:42.152Z,100299.97
2019-03-05T23:46:44.604Z,100293.59
2019-03-05T23:51:47.071Z,100291.64
2019-03-05T23:56:49.542Z,100293.52
